Time;durP1;ratioP1;P1;durP2;ratioP2;P2;SDS_P1;SDS_P2;PMS_P1;PMS_P2;Temp;Humidity;BMP_temperature;BMP_pressure;BME280_temperature;BME280_humidity;BME280_pressure;Samples;Min_cycle;Max_cycle;Signal;HPM_P1;HPM_P2
2023/06/12 06:15:20;;;;;;;0.40;0.40;;;;;;;;;;7396175;19;20160;-92
2023/06/12 06:17:47;;;;;;;0.90;0.90;;;;;;;;;;7392223;19;20141;-92
2023/06/12 06:20:14;;;;;;;1.17;1.10;;;;;;;;;;7390918;19;20161;-91
2023/06/12 06:22:43;;;;;;;0.95;0.95;;;;;;;;;;7389071;19;20205;-92
2023/06/12 06:25:09;;;;;;;0.65;0.65;;;;;;;;;;7391457;19;20141;-91
2023/06/12 06:27:37;;;;;;;1.25;1.15;;;;;;;;;;7388373;19;20172;-93
2023/06/12 06:30:04;;;;;;;0.60;0.60;;;;;;;;;;7390613;19;20217;-92
2023/06/12 06:32:31;;;;;;;1.02;0.95;;;;;;;;;;7387658;19;20167;-92
2023/06/12 06:34:57;;;;;;;1.13;1.08;;;;;;;;;;7390035;19;20132;-91
2023/06/12 06:37:24;;;;;;;0.85;0.85;;;;;;;;;;7390603;19;20137;-91
2023/06/12 06:39:51;;;;;;;1.10;1.10;;;;;;;;;;7390607;19;20151;-91
2023/06/12 06:42:17;;;;;;;0.73;0.73;;;;;;;;;;7389687;19;20497;-92
2023/06/12 06:44:45;;;;;;;0.50;0.50;;;;;;;;;;7388256;19;20150;-91
2023/06/12 06:47:12;;;;;;;0.68;0.68;;;;;;;;;;7390882;19;20125;-91
2023/06/12 06:49:38;;;;;;;1.08;0.98;;;;;;;;;;7390367;19;20147;-91
2023/06/12 06:52:05;;;;;;;0.80;0.80;;;;;;;;;;7396881;19;20153;-92
2023/06/12 06:54:32;;;;;;;0.73;0.73;;;;;;;;;;7392156;19;20137;-91
2023/06/12 06:57:00;;;;;;;0.90;0.90;;;;;;;;;;7391122;19;20156;-92
2023/06/12 06:59:27;;;;;;;0.82;0.80;;;;;;;;;;7389400;19;20157;-93
2023/06/12 07:01:54;;;;;;;0.68;0.68;;;;;;;;;;7392003;19;20141;-93
2023/06/12 07:04:20;;;;;;;1.48;0.63;;;;;;;;;;7390686;19;20133;-91
2023/06/12 07:06:47;;;;;;;0.70;0.70;;;;;;;;;;7388963;19;20463;-91
2023/06/12 07:09:14;;;;;;;0.50;0.50;;;;;;;;;;7386189;19;20539;-91
2023/06/12 07:11:41;;;;;;;0.75;0.75;;;;;;;;;;7396183;19;20172;-90
2023/06/12 07:14:07;;;;;;;0.88;0.88;;;;;;;;;;7396839;19;20481;-91
2023/06/12 07:16:34;;;;;;;0.90;0.90;;;;;;;;;;7396219;19;20148;-91
2023/06/12 07:19:02;;;;;;;1.20;0.93;;;;;;;;;;7397817;19;20141;-91
2023/06/12 07:21:29;;;;;;;0.70;0.70;;;;;;;;;;7396781;19;20257;-92
2023/06/12 07:23:56;;;;;;;0.85;0.82;;;;;;;;;;7393515;19;20485;-91
2023/06/12 07:26:23;;;;;;;0.70;0.70;;;;;;;;;;7397102;19;20208;-91
2023/06/12 07:28:55;;;;;;;1.27;1.17;;;;;;;;;;7395663;19;20143;-92
2023/06/12 07:31:26;;;;;;;0.50;0.50;;;;;;;;;;7397823;19;20152;-91
2023/06/12 07:33:53;;;;;;;0.70;0.70;;;;;;;;;;7397611;19;20137;-91
2023/06/12 07:36:19;;;;;;;1.02;1.02;;;;;;;;;;7396567;19;20143;-91
2023/06/12 07:38:46;;;;;;;1.23;1.10;;;;;;;;;;7397842;19;20545;-92
2023/06/12 07:41:13;;;;;;;0.73;0.73;;;;;;;;;;7397057;19;20159;-92
2023/06/12 07:43:40;;;;;;;1.05;1.05;;;;;;;;;;7397765;19;20150;-92
2023/06/12 07:46:06;;;;;;;0.80;0.80;;;;;;;;;;7398053;19;20192;-92
2023/06/12 07:48:33;;;;;;;1.02;1.02;;;;;;;;;;7398935;19;20510;-91
2023/06/12 07:51:00;;;;;;;1.08;1.08;;;;;;;;;;7396482;19;20133;-91
2023/06/12 07:53:26;;;;;;;0.50;0.50;;;;;;;;;;7392629;19;20501;-91
2023/06/12 07:56:04;;;;;;;0.60;0.60;;;;;;;;;;7395387;19;20145;-91
2023/06/12 07:58:31;;;;;;;0.82;0.82;;;;;;;;;;7396844;19;20140;-90
2023/06/12 08:00:57;;;;;;;0.98;0.77;;;;;;;;;;7394565;19;20140;-91
2023/06/12 08:03:24;;;;;;;1.77;1.35;;;;;;;;;;7392719;19;20161;-91
2023/06/12 08:05:57;;;;;;;0.80;0.80;;;;;;;;;;7396024;19;20169;-92
2023/06/12 08:08:24;;;;;;;0.95;0.88;;;;;;;;;;7393554;19;20153;-92
2023/06/12 08:10:51;;;;;;;1.00;0.98;;;;;;;;;;7394671;19;20196;-90
2023/06/12 08:13:17;;;;;;;0.77;0.77;;;;;;;;;;7392151;19;20187;-92
2023/06/12 08:15:44;;;;;;;0.95;0.95;;;;;;;;;;7394357;19;20151;-91
2023/06/12 08:18:11;;;;;;;1.00;1.00;;;;;;;;;;7394294;19;20145;-91
2023/06/12 08:20:38;;;;;;;0.60;0.60;;;;;;;;;;7395132;19;20141;-91
2023/06/12 08:23:05;;;;;;;0.85;0.85;;;;;;;;;;7396633;19;20498;-91
2023/06/12 08:25:34;;;;;;;1.10;1.10;;;;;;;;;;7397663;19;20154;-91
2023/06/12 08:28:01;;;;;;;0.70;0.70;;;;;;;;;;7396284;19;20168;-91
2023/06/12 08:30:31;;;;;;;0.88;0.88;;;;;;;;;;7397926;19;20144;-91
2023/06/12 08:33:07;;;;;;;0.75;0.75;;;;;;;;;;7397147;19;20486;-91
2023/06/12 08:35:34;;;;;;;0.90;0.90;;;;;;;;;;7397302;19;20617;-91
2023/06/12 08:38:01;;;;;;;2.05;1.38;;;;;;;;;;7399682;19;20216;-91
2023/06/12 08:40:29;;;;;;;0.90;0.90;;;;;;;;;;7398725;19;20943;-91
2023/06/12 08:42:55;;;;;;;0.88;0.88;;;;;;;;;;7397003;19;20152;-91
2023/06/12 08:45:25;;;;;;;0.80;0.80;;;;;;;;;;7398161;19;20133;-91
2023/06/12 08:47:53;;;;;;;0.73;0.73;;;;;;;;;;7397091;19;20640;-90
2023/06/12 08:50:20;;;;;;;0.60;0.60;;;;;;;;;;7396386;19;20145;-91
2023/06/12 08:52:47;;;;;;;0.90;0.90;;;;;;;;;;7400326;19;20180;-91
2023/06/12 08:55:17;;;;;;;0.75;0.75;;;;;;;;;;7396355;19;20137;-91
2023/06/12 08:57:43;;;;;;;0.70;0.70;;;;;;;;;;7392406;19;20152;-93
2023/06/12 09:00:13;;;;;;;0.60;0.60;;;;;;;;;;7393062;19;20144;-90
2023/06/12 09:03:00;;;;;;;0.50;0.50;;;;;;;;;;7392869;19;20176;-91
2023/06/12 09:05:29;;;;;;;0.75;0.75;;;;;;;;;;7396898;19;20636;-91
2023/06/12 09:08:00;;;;;;;0.45;0.45;;;;;;;;;;7399419;19;20200;-91
2023/06/12 09:10:29;;;;;;;0.47;0.47;;;;;;;;;;7392622;19;20136;-92
2023/06/12 09:13:05;;;;;;;1.30;1.05;;;;;;;;;;7396060;19;20169;-91
2023/06/12 09:15:32;;;;;;;0.40;0.40;;;;;;;;;;7398352;19;20141;-91
2023/06/12 09:17:59;;;;;;;0.82;0.82;;;;;;;;;;7403549;19;20151;-92
2023/06/12 09:20:28;;;;;;;1.30;1.15;;;;;;;;;;7415420;19;20602;-91
2023/06/12 09:23:08;;;;;;;1.05;1.05;;;;;;;;;;7401051;19;20184;-92
2023/06/12 09:25:42;;;;;;;0.73;0.73;;;;;;;;;;7396951;19;20225;-91
2023/06/12 09:28:27;;;;;;;1.05;1.05;;;;;;;;;;7397508;19;20145;-92
2023/06/12 09:30:54;;;;;;;0.82;0.82;;;;;;;;;;7392920;19;20140;-91
2023/06/12 09:33:31;;;;;;;0.88;0.88;;;;;;;;;;7393294;19;20212;-93
2023/06/12 09:35:59;;;;;;;1.00;0.95;;;;;;;;;;7394211;19;20634;-94
2023/06/12 09:38:30;;;;;;;0.95;0.95;;;;;;;;;;7389975;19;20137;-92
2023/06/12 09:40:57;;;;;;;0.70;0.70;;;;;;;;;;7394908;19;20213;-93
2023/06/12 09:43:28;;;;;;;0.98;0.98;;;;;;;;;;7411976;19;20160;-89
2023/06/12 09:45:55;;;;;;;0.65;0.65;;;;;;;;;;7419387;19;20181;-90
2023/06/12 09:48:22;;;;;;;0.75;0.75;;;;;;;;;;7397536;19;20141;-91
2023/06/12 09:50:48;;;;;;;0.70;0.70;;;;;;;;;;7396391;19;20592;-89
2023/06/12 09:53:20;;;;;;;1.10;1.00;;;;;;;;;;7392020;19;20243;-90
2023/06/12 09:55:52;;;;;;;0.80;0.73;;;;;;;;;;7394466;19;20141;-91
2023/06/12 09:58:19;;;;;;;0.90;0.90;;;;;;;;;;7394898;19;20141;-94
2023/06/12 10:00:46;;;;;;;0.93;0.93;;;;;;;;;;7397838;19;20149;-91
2023/06/12 10:03:15;;;;;;;0.77;0.77;;;;;;;;;;7391839;19;20177;-91
2023/06/12 10:05:47;;;;;;;0.80;0.80;;;;;;;;;;7394225;19;20160;-92
2023/06/12 10:08:16;;;;;;;1.25;1.17;;;;;;;;;;7390371;19;20129;-92
2023/06/12 10:10:43;;;;;;;1.13;1.02;;;;;;;;;;7396169;19;20145;-93
2023/06/12 10:13:11;;;;;;;0.82;0.82;;;;;;;;;;7390629;19;20955;-92
2023/06/12 10:15:42;;;;;;;0.57;0.57;;;;;;;;;;7398132;19;20140;-93
2023/06/12 10:18:09;;;;;;;0.60;0.60;;;;;;;;;;7392480;19;20137;-93
2023/06/12 10:20:36;;;;;;;0.93;0.93;;;;;;;;;;7394218;19;20160;-92
2023/06/12 10:23:03;;;;;;;1.33;1.23;;;;;;;;;;7396860;19;20159;-92
2023/06/12 10:25:34;;;;;;;1.10;1.10;;;;;;;;;;7398536;19;20137;-92
2023/06/12 10:28:01;;;;;;;0.70;0.70;;;;;;;;;;7396416;19;20148;-92
2023/06/12 10:31:13;;;;;;;0.70;0.70;;;;;;;;;;7392924;19;20233;-90
2023/06/12 10:34:01;;;;;;;0.90;0.90;;;;;;;;;;7392412;19;20133;-93
2023/06/12 10:36:39;;;;;;;0.73;0.73;;;;;;;;;;7394459;19;20172;-91
2023/06/12 10:39:24;;;;;;;0.65;0.65;;;;;;;;;;7392061;19;20135;-92
2023/06/12 10:41:58;;;;;;;1.40;1.30;;;;;;;;;;7388268;19;20167;-92
2023/06/12 10:44:38;;;;;;;0.73;0.73;;;;;;;;;;7393737;19;20700;-92
2023/06/12 10:47:06;;;;;;;0.70;0.70;;;;;;;;;;7401623;19;20133;-92
2023/06/12 10:49:56;;;;;;;0.90;0.90;;;;;;;;;;7405157;19;20145;-91
2023/06/12 10:52:23;;;;;;;0.93;0.93;;;;;;;;;;7402133;19;20625;-93
2023/06/12 10:55:29;;;;;;;0.93;0.93;;;;;;;;;;7397643;19;20141;-93
2023/06/12 10:57:57;;;;;;;0.95;0.95;;;;;;;;;;7391743;19;20137;-91
2023/06/12 11:00:32;;;;;;;0.70;0.70;;;;;;;;;;7397382;19;20816;-93
2023/06/12 11:03:00;;;;;;;0.52;0.52;;;;;;;;;;7397243;19;20632;-92
2023/06/12 11:05:29;;;;;;;1.15;1.05;;;;;;;;;;7397111;19;20137;-93
2023/06/12 11:08:08;;;;;;;0.70;0.70;;;;;;;;;;7399870;19;20141;-93
2023/06/12 11:10:35;;;;;;;1.38;1.27;;;;;;;;;;7403359;19;20140;-92
2023/06/12 11:13:03;;;;;;;1.00;0.90;;;;;;;;;;7405351;19;20173;-93
2023/06/12 11:15:33;;;;;;;0.85;0.85;;;;;;;;;;7414307;19;20129;-92
2023/06/12 11:18:00;;;;;;;0.93;0.93;;;;;;;;;;7410226;19;20137;-91
2023/06/12 11:20:26;;;;;;;0.75;0.75;;;;;;;;;;7399002;19;20133;-92
2023/06/12 11:23:03;;;;;;;0.65;0.65;;;;;;;;;;7399003;19;20157;-92
2023/06/12 11:25:42;;;;;;;0.60;0.60;;;;;;;;;;7404189;19;20140;-92
2023/06/12 11:28:11;;;;;;;0.65;0.65;;;;;;;;;;7402470;19;20580;-92
2023/06/12 11:30:40;;;;;;;1.17;1.17;;;;;;;;;;7406367;19;20146;-91
2023/06/12 11:33:26;;;;;;;0.95;0.95;;;;;;;;;;7406200;19;20704;-90
2023/06/12 11:35:57;;;;;;;0.93;0.93;;;;;;;;;;7407627;19;20151;-92
2023/06/12 11:38:24;;;;;;;1.50;1.33;;;;;;;;;;7401295;19;20136;-91
2023/06/12 11:40:59;;;;;;;0.70;0.70;;;;;;;;;;7396810;19;20141;-92
2023/06/12 11:43:26;;;;;;;1.15;0.75;;;;;;;;;;7395244;19;20149;-93
2023/06/12 11:46:04;;;;;;;0.60;0.60;;;;;;;;;;7400731;19;20155;-93
2023/06/12 11:48:31;;;;;;;1.42;1.10;;;;;;;;;;7395862;19;20137;-92
2023/06/12 11:51:01;;;;;;;0.50;0.50;;;;;;;;;;7400451;19;20141;-93
2023/06/12 11:53:30;;;;;;;0.68;0.68;;;;;;;;;;7401734;19;20173;-92
2023/06/12 11:56:02;;;;;;;1.00;1.00;;;;;;;;;;7398584;19;20143;-93
2023/06/12 11:58:36;;;;;;;0.88;0.88;;;;;;;;;;7396698;19;20200;-91
2023/06/12 12:01:22;;;;;;;0.68;0.68;;;;;;;;;;7399086;19;20175;-92
2023/06/12 12:03:50;;;;;;;1.25;1.10;;;;;;;;;;7395372;19;20125;-91
2023/06/12 12:06:22;;;;;;;0.77;0.77;;;;;;;;;;7396931;19;20140;-91
2023/06/12 12:08:57;;;;;;;0.93;0.93;;;;;;;;;;7395161;19;20121;-92
2023/06/12 12:11:29;;;;;;;0.73;0.73;;;;;;;;;;7398372;19;21004;-92
2023/06/12 12:14:03;;;;;;;0.50;0.50;;;;;;;;;;7395362;19;20208;-92
2023/06/12 12:16:43;;;;;;;0.50;0.50;;;;;;;;;;7395722;19;20140;-91
2023/06/12 12:19:26;;;;;;;0.55;0.55;;;;;;;;;;7398664;19;20616;-90
2023/06/12 12:21:54;;;;;;;1.30;1.20;;;;;;;;;;7397876;19;20149;-92
2023/06/12 12:24:21;;;;;;;0.82;0.82;;;;;;;;;;7398463;19;20149;-91
2023/06/12 12:26:50;;;;;;;0.65;0.65;;;;;;;;;;7397727;19;20138;-93
2023/06/12 12:29:21;;;;;;;0.57;0.57;;;;;;;;;;7394740;19;20504;-93
2023/06/12 12:31:48;;;;;;;0.80;0.80;;;;;;;;;;7395790;19;20172;-93
2023/06/12 12:34:16;;;;;;;0.52;0.52;;;;;;;;;;7397294;19;20136;-93
2023/06/12 12:36:43;;;;;;;0.55;0.55;;;;;;;;;;7397321;19;20145;-93
2023/06/12 12:39:09;;;;;;;0.75;0.75;;;;;;;;;;7399844;19;20219;-91
2023/06/12 12:41:36;;;;;;;1.25;1.25;;;;;;;;;;7402691;19;20156;-91
2023/06/12 12:44:04;;;;;;;0.68;0.68;;;;;;;;;;7403267;19;20600;-93
2023/06/12 12:46:32;;;;;;;1.52;1.42;;;;;;;;;;7402303;19;20164;-92
2023/06/12 12:48:58;;;;;;;0.80;0.80;;;;;;;;;;7402074;19;20148;-91
2023/06/12 12:51:26;;;;;;;0.55;0.55;;;;;;;;;;7399814;19;20683;-93
2023/06/12 12:53:53;;;;;;;0.77;0.77;;;;;;;;;;7405856;19;20144;-93
2023/06/12 12:56:19;;;;;;;1.23;1.13;;;;;;;;;;7400230;19;20141;-93
2023/06/12 12:58:46;;;;;;;0.77;0.77;;;;;;;;;;7398692;19;20129;-92
2023/06/12 13:01:13;;;;;;;1.33;1.23;;;;;;;;;;7395733;19;20149;-92
2023/06/12 13:03:40;;;;;;;0.90;0.90;;;;;;;;;;7404252;19;20604;-93
2023/06/12 13:06:08;;;;;;;0.60;0.60;;;;;;;;;;7397685;19;20153;-93
2023/06/12 13:08:36;;;;;;;1.05;1.05;;;;;;;;;;7399110;19;20148;-93
2023/06/12 13:11:03;;;;;;;0.60;0.60;;;;;;;;;;7396818;19;20144;-92
2023/06/12 13:13:32;;;;;;;0.88;0.77;;;;;;;;;;7404629;19;20136;-92
2023/06/12 13:16:00;;;;;;;0.70;0.70;;;;;;;;;;7403185;19;20141;-92
2023/06/12 13:18:28;;;;;;;0.77;0.77;;;;;;;;;;7399189;19;20636;-93
2023/06/12 13:20:54;;;;;;;0.95;0.68;;;;;;;;;;7400956;19;20133;-92
2023/06/12 13:23:22;;;;;;;1.25;1.15;;;;;;;;;;7399920;19;20145;-92
2023/06/12 13:25:49;;;;;;;1.27;1.08;;;;;;;;;;7404188;19;20145;-93
2023/06/12 13:28:16;;;;;;;0.80;0.80;;;;;;;;;;7399224;19;20152;-92
2023/06/12 13:30:44;;;;;;;0.95;0.95;;;;;;;;;;7397340;19;20160;-91
2023/06/12 13:33:11;;;;;;;0.52;0.52;;;;;;;;;;7402415;19;20192;-92
2023/06/12 13:35:38;;;;;;;0.75;0.75;;;;;;;;;;7398141;19;20158;-92
2023/06/12 13:38:05;;;;;;;0.82;0.82;;;;;;;;;;7402669;19;20129;-92
2023/06/12 13:40:32;;;;;;;0.80;0.80;;;;;;;;;;7397901;19;20548;-92
2023/06/12 13:42:59;;;;;;;0.90;0.90;;;;;;;;;;7397915;19;20168;-93
2023/06/12 13:45:26;;;;;;;0.93;0.93;;;;;;;;;;7397768;19;20140;-92
2023/06/12 13:47:54;;;;;;;0.60;0.60;;;;;;;;;;7393687;19;20133;-92
2023/06/12 13:50:21;;;;;;;1.02;0.95;;;;;;;;;;7395018;19;20141;-92
2023/06/12 14:30:04;;;;;;;1.38;0.80;;;;;;;;;;7399341;19;20117;-89
2023/06/12 14:32:32;;;;;;;1.50;0.90;;;;;;;;;;7401212;19;20148;-89
2023/06/12 14:35:00;;;;;;;0.70;0.70;;;;;;;;;;7400996;19;20137;-89
2023/06/12 14:37:27;;;;;;;0.65;0.65;;;;;;;;;;7402721;19;20589;-90
2023/06/12 14:39:53;;;;;;;0.40;0.40;;;;;;;;;;7401770;19;20160;-89
2023/06/12 14:42:20;;;;;;;1.20;1.20;;;;;;;;;;7403452;19;20178;-89
2023/06/12 14:44:47;;;;;;;0.75;0.75;;;;;;;;;;7400706;19;20137;-88
2023/06/12 14:47:13;;;;;;;1.10;1.00;;;;;;;;;;7401903;19;20153;-88
2023/06/12 14:49:40;;;;;;;0.85;0.75;;;;;;;;;;7403507;19;20149;-88
2023/06/12 14:52:07;;;;;;;0.60;0.60;;;;;;;;;;7408208;19;20149;-88
2023/06/12 14:54:53;;;;;;;0.40;0.40;;;;;;;;;;7408840;19;20688;-88
2023/06/12 14:57:20;;;;;;;0.68;0.68;;;;;;;;;;7400024;19;20185;-89
2023/06/12 14:59:46;;;;;;;1.38;1.23;;;;;;;;;;7406966;19;20148;-89
2023/06/12 15:02:13;;;;;;;0.88;0.88;;;;;;;;;;7404303;19;20171;-89
2023/06/12 15:04:40;;;;;;;0.70;0.70;;;;;;;;;;7408030;19;20176;-89
2023/06/12 15:07:07;;;;;;;1.52;0.93;;;;;;;;;;7407164;19;20149;-89
2023/06/12 15:09:33;;;;;;;0.70;0.70;;;;;;;;;;7404671;19;20145;-90
2023/06/12 15:12:00;;;;;;;0.50;0.50;;;;;;;;;;7408422;19;20159;-89
2023/06/12 15:14:27;;;;;;;0.68;0.68;;;;;;;;;;7405642;19;20149;-90
2023/06/12 15:16:54;;;;;;;0.73;0.73;;;;;;;;;;7400698;19;20208;-91
2023/06/12 15:19:21;;;;;;;0.50;0.50;;;;;;;;;;7395937;19;20157;-91
2023/06/12 15:21:47;;;;;;;0.50;0.50;;;;;;;;;;7398823;19;20265;-91
2023/06/12 15:24:14;;;;;;;0.88;0.88;;;;;;;;;;7400908;19;20499;-91
2023/06/12 17:23:04;;;;;;;5.10;1.48;;;;;;;;;;7390816;19;20168;-91
2023/06/12 17:25:57;;;;;;;1.48;1.13;;;;;;;;;;7390291;19;20642;-88
2023/06/12 17:28:23;;;;;;;0.50;0.50;;;;;;;;;;7395516;19;20144;-90
2023/06/12 17:30:50;;;;;;;0.88;0.88;;;;;;;;;;7392824;19;20153;-89
2023/06/12 17:33:17;;;;;;;1.00;1.00;;;;;;;;;;7396080;19;20168;-90
2023/06/12 17:35:44;;;;;;;1.10;1.08;;;;;;;;;;7396062;19;20148;-90
2023/06/12 17:38:36;;;;;;;1.00;0.95;;;;;;;;;;7398040;19;20634;-89
2023/06/12 17:41:06;;;;;;;0.90;0.90;;;;;;;;;;7391461;19;20597;-89
2023/06/12 17:43:33;;;;;;;1.55;0.70;;;;;;;;;;7395156;19;20131;-89
2023/06/12 17:46:01;;;;;;;0.70;0.70;;;;;;;;;;7394988;19;20157;-88
2023/06/12 17:48:28;;;;;;;0.70;0.70;;;;;;;;;;7389259;19;20597;-88
2023/06/12 17:50:55;;;;;;;0.80;0.80;;;;;;;;;;7391353;19;20172;-89
2023/06/12 17:53:23;;;;;;;0.65;0.65;;;;;;;;;;7386536;19;20172;-89
2023/06/12 17:55:50;;;;;;;0.98;0.95;;;;;;;;;;7390168;19;20148;-89
2023/06/12 17:58:17;;;;;;;0.55;0.55;;;;;;;;;;7395712;19;20151;-90
2023/06/12 18:00:45;;;;;;;0.57;0.57;;;;;;;;;;7394250;19;20146;-90
2023/06/12 18:03:12;;;;;;;1.15;1.05;;;;;;;;;;7390062;19;20152;-89
2023/06/12 18:05:39;;;;;;;0.90;0.90;;;;;;;;;;7396974;19;20527;-90
2023/06/12 18:08:05;;;;;;;7.90;1.23;;;;;;;;;;7394985;19;20148;-89
2023/06/12 18:10:32;;;;;;;1.73;1.23;;;;;;;;;;7390978;19;20133;-89
2023/06/12 18:12:59;;;;;;;0.65;0.65;;;;;;;;;;7390228;19;20180;-86
2023/06/12 18:15:25;;;;;;;0.70;0.70;;;;;;;;;;7396801;19;20145;-87
2023/06/12 18:17:53;;;;;;;2.38;1.27;;;;;;;;;;7391095;19;20145;-86
2023/06/12 18:20:19;;;;;;;0.70;0.70;;;;;;;;;;7397810;19;20141;-86
2023/06/12 18:22:46;;;;;;;0.60;0.60;;;;;;;;;;7401327;19;20176;-87
2023/06/12 18:25:13;;;;;;;0.90;0.90;;;;;;;;;;7399426;19;20597;-86
2023/06/12 18:27:56;;;;;;;0.73;0.73;;;;;;;;;;7403346;19;20140;-87
2023/06/12 18:30:39;;;;;;;0.85;0.85;;;;;;;;;;7396136;19;20197;-85
2023/06/12 18:33:05;;;;;;;0.68;0.68;;;;;;;;;;7374821;19;20188;-85
2023/06/12 18:35:32;;;;;;;0.75;0.73;;;;;;;;;;7397373;19;20133;-85
2023/06/12 18:38:00;;;;;;;0.47;0.47;;;;;;;;;;7393106;19;20137;-85
2023/06/12 18:40:27;;;;;;;1.10;1.08;;;;;;;;;;7393820;19;20145;-85
2023/06/12 18:42:53;;;;;;;1.58;1.00;;;;;;;;;;7394682;19;20163;-86
2023/06/12 18:45:20;;;;;;;1.23;1.23;;;;;;;;;;7389634;19;20155;-89
2023/06/12 18:47:47;;;;;;;0.47;0.47;;;;;;;;;;7383670;19;20149;-89
2023/06/12 18:50:13;;;;;;;0.65;0.65;;;;;;;;;;7386352;19;20137;-89
2023/06/12 18:52:40;;;;;;;2.45;1.20;;;;;;;;;;7385928;19;20169;-87
2023/06/12 18:55:07;;;;;;;0.95;0.95;;;;;;;;;;7388241;19;20200;-87
2023/06/12 18:57:34;;;;;;;2.63;1.77;;;;;;;;;;7403708;19;20137;-88
2023/06/12 19:00:01;;;;;;;0.70;0.70;;;;;;;;;;7417563;19;20121;-87
2023/06/12 19:02:27;;;;;;;0.80;0.80;;;;;;;;;;7416669;19;20170;-87
2023/06/12 19:04:54;;;;;;;1.30;1.20;;;;;;;;;;7425005;19;20134;-87
2023/06/12 19:07:23;;;;;;;1.05;1.00;;;;;;;;;;7431403;19;20141;-85
2023/06/12 19:10:20;;;;;;;0.68;0.68;;;;;;;;;;7418454;19;20161;-87
2023/06/12 19:12:52;;;;;;;0.60;0.60;;;;;;;;;;7428162;19;20183;-86
2023/06/12 19:15:19;;;;;;;1.25;1.15;;;;;;;;;;7427971;19;20186;-86
2023/06/12 19:17:47;;;;;;;0.50;0.50;;;;;;;;;;7428352;19;20136;-88
2023/06/12 19:20:17;;;;;;;0.65;0.65;;;;;;;;;;7425181;19;20177;-87
2023/06/12 19:22:50;;;;;;;1.20;1.17;;;;;;;;;;7414899;19;20192;-90
2023/06/12 19:25:19;;;;;;;0.85;0.68;;;;;;;;;;7395422;19;20165;-89
2023/06/12 19:27:58;;;;;;;1.02;1.02;;;;;;;;;;7399415;19;20558;-88
2023/06/12 19:30:34;;;;;;;0.50;0.50;;;;;;;;;;7395105;19;20169;-88
2023/06/12 19:34:16;;;;;;;1.38;1.30;;;;;;;;;;7391263;19;20172;-87
2023/06/12 19:36:43;;;;;;;1.75;1.10;;;;;;;;;;7398447;19;20498;-87
2023/06/12 19:39:09;;;;;;;0.95;0.95;;;;;;;;;;7401439;19;20156;-87
2023/06/12 19:41:36;;;;;;;1.05;0.95;;;;;;;;;;7397311;19;20191;-86
2023/06/12 19:44:03;;;;;;;0.50;0.50;;;;;;;;;;7401523;19;20137;-87
2023/06/12 19:46:30;;;;;;;1.00;1.00;;;;;;;;;;7401165;19;20152;-87
2023/06/12 19:48:56;;;;;;;0.77;0.77;;;;;;;;;;7397330;19;20137;-87
2023/06/12 19:51:23;;;;;;;1.08;1.08;;;;;;;;;;7397389;19;20664;-86
2023/06/12 19:53:50;;;;;;;0.77;0.77;;;;;;;;;;7397704;19;20149;-87
2023/06/12 19:56:16;;;;;;;1.15;1.15;;;;;;;;;;7399364;19;20143;-87
2023/06/12 19:58:43;;;;;;;1.25;1.15;;;;;;;;;;7400246;19;20307;-85
2023/06/12 20:01:10;;;;;;;0.65;0.65;;;;;;;;;;7398522;19;20144;-86
2023/06/12 20:03:37;;;;;;;0.80;0.80;;;;;;;;;;7403674;19;20141;-88
2023/06/12 20:06:04;;;;;;;1.50;1.33;;;;;;;;;;7400858;19;20163;-87
2023/06/12 20:08:33;;;;;;;1.85;1.02;;;;;;;;;;7396787;19;20160;-87
2023/06/12 20:11:01;;;;;;;0.90;0.90;;;;;;;;;;7398032;19;20155;-88
2023/06/12 20:13:28;;;;;;;1.42;1.33;;;;;;;;;;7398118;19;20173;-87
2023/06/12 20:15:55;;;;;;;0.75;0.75;;;;;;;;;;7400555;19;20201;-88
2023/06/12 20:18:21;;;;;;;1.88;1.77;;;;;;;;;;7399152;19;20268;-87
2023/06/12 20:20:50;;;;;;;0.73;0.70;;;;;;;;;;7399008;19;20153;-87
2023/06/12 20:23:20;;;;;;;0.73;0.73;;;;;;;;;;7396433;19;20524;-88
2023/06/12 20:25:47;;;;;;;0.50;0.50;;;;;;;;;;7398128;19;20133;-88
2023/06/12 20:28:16;;;;;;;0.60;0.60;;;;;;;;;;7400575;19;20607;-86
2023/06/12 20:30:43;;;;;;;0.60;0.60;;;;;;;;;;7397881;19;20152;-88
2023/06/12 20:33:10;;;;;;;0.82;0.82;;;;;;;;;;7398918;19;20148;-86
2023/06/12 20:35:37;;;;;;;0.70;0.70;;;;;;;;;;7400202;19;20156;-87
2023/06/12 20:38:04;;;;;;;0.73;0.73;;;;;;;;;;7397281;19;20535;-88
2023/06/12 20:40:31;;;;;;;0.73;0.73;;;;;;;;;;7398944;19;20141;-87
2023/06/12 20:42:57;;;;;;;1.02;1.02;;;;;;;;;;7395586;19;20618;-88
2023/06/12 20:45:24;;;;;;;0.77;0.68;;;;;;;;;;7401013;19;20144;-88
2023/06/12 20:47:51;;;;;;;0.85;0.85;;;;;;;;;;7401433;19;20540;-88
2023/06/12 20:50:18;;;;;;;0.77;0.77;;;;;;;;;;7401372;19;20137;-88
2023/06/12 20:52:45;;;;;;;0.50;0.50;;;;;;;;;;7399758;19;20721;-88
2023/06/12 20:55:12;;;;;;;0.60;0.60;;;;;;;;;;7400738;19;20153;-88
2023/06/12 20:57:39;;;;;;;1.50;0.90;;;;;;;;;;7401250;19;20141;-88
2023/06/12 21:00:08;;;;;;;1.27;1.17;;;;;;;;;;7397812;19;20145;-89
2023/06/12 21:02:36;;;;;;;0.47;0.47;;;;;;;;;;7399610;19;20216;-88
2023/06/12 21:05:02;;;;;;;0.57;0.57;;;;;;;;;;7399012;19;20144;-88
2023/06/12 21:07:29;;;;;;;1.05;1.05;;;;;;;;;;7398334;19;20137;-89
2023/06/12 21:09:56;;;;;;;0.60;0.60;;;;;;;;;;7400938;19;20137;-88
2023/06/12 21:12:23;;;;;;;4.25;1.17;;;;;;;;;;7398799;19;20200;-88
2023/06/12 21:14:49;;;;;;;0.50;0.50;;;;;;;;;;7401122;19;20159;-88
2023/06/12 21:17:16;;;;;;;0.50;0.50;;;;;;;;;;7403899;19;20144;-88
2023/06/12 21:19:43;;;;;;;0.52;0.52;;;;;;;;;;7398680;19;20164;-88
2023/06/12 21:22:10;;;;;;;0.50;0.50;;;;;;;;;;7398370;19;20160;-88
2023/06/12 21:24:37;;;;;;;4.22;1.05;;;;;;;;;;7400433;19;20232;-88
2023/06/12 21:27:05;;;;;;;0.63;0.63;;;;;;;;;;7400838;19;20141;-88
2023/06/12 21:29:32;;;;;;;0.90;0.90;;;;;;;;;;7399124;19;20141;-88
2023/06/12 21:31:59;;;;;;;1.02;0.82;;;;;;;;;;7399041;19;20176;-88
2023/06/12 21:34:26;;;;;;;0.52;0.52;;;;;;;;;;7401029;19;20141;-88
2023/06/12 21:36:53;;;;;;;0.90;0.90;;;;;;;;;;7401874;19;20143;-88
2023/06/12 21:39:38;;;;;;;0.82;0.82;;;;;;;;;;7395714;19;20495;-89
2023/06/12 21:42:06;;;;;;;1.13;0.82;;;;;;;;;;7392890;19;20161;-89
2023/06/12 21:44:33;;;;;;;0.70;0.70;;;;;;;;;;7395626;19;20474;-88
2023/06/12 21:47:00;;;;;;;0.65;0.65;;;;;;;;;;7387902;19;20148;-87
2023/06/12 21:49:26;;;;;;;0.43;0.43;;;;;;;;;;7394662;19;20140;-87
2023/06/12 21:51:53;;;;;;;0.43;0.43;;;;;;;;;;7389785;19;20168;-88
2023/06/12 21:54:20;;;;;;;0.50;0.50;;;;;;;;;;7396454;19;20148;-88
2023/06/12 21:56:46;;;;;;;0.63;0.63;;;;;;;;;;7397642;19;20484;-88
2023/06/12 21:59:14;;;;;;;3.60;1.20;;;;;;;;;;7400991;19;20141;-88
2023/06/12 22:01:41;;;;;;;1.02;0.73;;;;;;;;;;7397924;19;20168;-88
2023/06/12 22:04:07;;;;;;;0.70;0.70;;;;;;;;;;7397869;19;20133;-88
2023/06/12 22:06:36;;;;;;;0.65;0.65;;;;;;;;;;7395876;19;20602;-88
2023/06/12 22:09:02;;;;;;;0.60;0.60;;;;;;;;;;7397115;19;20551;-88
2023/06/12 22:11:29;;;;;;;0.73;0.73;;;;;;;;;;7397188;19;20149;-88
2023/06/12 22:13:56;;;;;;;0.93;0.80;;;;;;;;;;7401033;19;20220;-88
2023/06/12 22:16:22;;;;;;;0.90;0.90;;;;;;;;;;7397465;19;20141;-88
2023/06/12 22:18:49;;;;;;;0.40;0.40;;;;;;;;;;7397866;19;20133;-87
2023/06/12 22:21:16;;;;;;;0.70;0.70;;;;;;;;;;7400601;19;20129;-87
2023/06/12 22:23:43;;;;;;;0.40;0.40;;;;;;;;;;7400482;19;20201;-87
2023/06/12 22:26:10;;;;;;;2.05;0.70;;;;;;;;;;7400063;19;20129;-88
2023/06/12 22:28:36;;;;;;;1.75;1.08;;;;;;;;;;7398874;19;20160;-89
2023/06/12 22:31:03;;;;;;;0.80;0.80;;;;;;;;;;7396700;19;20141;-87
2023/06/12 22:33:30;;;;;;;0.88;0.88;;;;;;;;;;7396494;19;20169;-89
2023/06/12 22:35:57;;;;;;;0.50;0.50;;;;;;;;;;7398817;19;20705;-88
2023/06/12 22:38:24;;;;;;;0.68;0.68;;;;;;;;;;7397011;19;20146;-88
2023/06/12 22:40:51;;;;;;;0.57;0.57;;;;;;;;;;7401478;19;20490;-87
2023/06/12 22:43:18;;;;;;;4.32;0.93;;;;;;;;;;7401434;19;20232;-87
2023/06/12 22:45:44;;;;;;;0.47;0.47;;;;;;;;;;7404952;19;20141;-88
2023/06/12 22:48:12;;;;;;;0.30;0.30;;;;;;;;;;7409515;19;20884;-89
2023/06/12 22:50:38;;;;;;;0.43;0.43;;;;;;;;;;7405434;19;20140;-88
2023/06/12 22:53:09;;;;;;;0.45;0.45;;;;;;;;;;7403901;19;20153;-88
2023/06/12 22:55:35;;;;;;;0.95;0.85;;;;;;;;;;7406684;19;20144;-87
2023/06/12 22:58:02;;;;;;;0.65;0.65;;;;;;;;;;7408288;19;20129;-87
2023/06/12 23:00:29;;;;;;;0.40;0.40;;;;;;;;;;7401981;19;20672;-87
2023/06/12 23:02:56;;;;;;;0.40;0.40;;;;;;;;;;7400892;19;20252;-88
2023/06/12 23:05:25;;;;;;;0.90;0.68;;;;;;;;;;7403556;19;20151;-88
2023/06/12 23:07:52;;;;;;;0.60;0.60;;;;;;;;;;7405618;19;20176;-88
2023/06/12 23:10:19;;;;;;;0.77;0.77;;;;;;;;;;7404301;19;20129;-88
2023/06/12 23:12:45;;;;;;;0.60;0.60;;;;;;;;;;7402156;19;20223;-89
2023/06/12 23:15:12;;;;;;;0.40;0.40;;;;;;;;;;7404793;19;20140;-88
2023/06/12 23:17:39;;;;;;;0.45;0.45;;;;;;;;;;7406279;19;20137;-88
2023/06/12 23:20:09;;;;;;;0.40;0.40;;;;;;;;;;7406358;19;20141;-88
2023/06/12 23:22:37;;;;;;;0.40;0.40;;;;;;;;;;7404706;19;20188;-87
2023/06/12 23:25:05;;;;;;;0.43;0.43;;;;;;;;;;7406001;19;20613;-89
2023/06/12 23:27:33;;;;;;;0.82;0.65;;;;;;;;;;7405058;19;20128;-88
2023/06/12 23:30:00;;;;;;;0.40;0.40;;;;;;;;;;7404406;19;20138;-89
2023/06/12 23:32:27;;;;;;;0.63;0.63;;;;;;;;;;7402268;19;20153;-89
2023/06/12 23:34:53;;;;;;;0.68;0.68;;;;;;;;;;7405276;19;20487;-88
2023/06/12 23:37:20;;;;;;;1.35;0.93;;;;;;;;;;7404720;19;20621;-88
2023/06/12 23:39:47;;;;;;;1.30;1.20;;;;;;;;;;7405520;19;20574;-88
2023/06/12 23:42:17;;;;;;;0.57;0.57;;;;;;;;;;7402800;19;20165;-88